Check out our new PWSWeather beta!
PWSweather.com
Personal Weather Stations
Station Observations
KVAGLENALL
West Henrico, Glen Allen, VA 23060-6503

West HenricoGlen Allen, VA 23060-6503

Lat: 37.6554, Lon: -77.5693

Elevation: 273

Station Type: Davis Vantage Pro II

www.glenallenweather.com

High Low Average
Temperature 51.2°F10.7°C 26.7°F-2.9°C 40.9°F4.9°C
Dew Point 28.2°F-2.1°C 17.3°F-8.2°C 22.0°F-5.6°C
Winds 10.0 mph 16.1 kmh Calm Calm 3.0 mph S4.8 kmh S
Wind Gusts 14.1 mph22.7 kmh -- 6.0 mph9.7 kmh
Humidity 69% 31% 48%
Pressure 30.37 in1028.4 mb 30.16 in1021.3 mb -
Precipitation 0.00 in0.0 mm - -
Hour Temp Dew Point Humidity Winds Wind Gusts Pressure Precip Precip Rate Daily Precip Total
12:00 AM 39.5°F4.2°C 22.9°F-5.1°C 51% 5.0 mph NE8.0 kmh NE 5.1 mph8.2 kmh 30.16 in1021.3 mb 0.00 in0.0 mm 0.00 in0.0 mm 0.00 in0.0 mm
01:00 AM 36.3°F2.4°C 22.1°F-5.5°C 56% 5.0 mph NNE8.0 kmh NNE 12.1 mph19.5 kmh 30.18 in1022.0 mb 0.00 in0.0 mm 0.00 in0.0 mm 0.00 in0.0 mm
02:00 AM 33.8°F1.0°C 19.8°F-6.8°C 56% 3.0 mph NNW4.8 kmh NNW 10.1 mph16.3 kmh 30.21 in1023.0 mb 0.00 in0.0 mm 0.00 in0.0 mm 0.00 in0.0 mm
03:00 AM 32.6°F0.3°C 18.6°F-7.4°C 56% 4.0 mph N6.4 kmh N 8.1 mph13.0 kmh 30.23 in1023.7 mb 0.00 in0.0 mm 0.00 in0.0 mm 0.00 in0.0 mm
04:00 AM 31.6°F-0.2°C 17.3°F-8.2°C 55% 4.0 mph N6.4 kmh N 9.1 mph14.6 kmh 30.25 in1024.4 mb 0.00 in0.0 mm 0.00 in0.0 mm 0.00 in0.0 mm
05:00 AM 28.6°F-1.9°C 17.7°F-7.9°C 63% 2.0 mph N3.2 kmh N 2.0 mph3.2 kmh 30.28 in1025.4 mb 0.00 in0.0 mm 0.00 in0.0 mm 0.00 in0.0 mm
06:00 AM 26.7°F-2.9°C 17.9°F-7.8°C 69% 1.0 mph N1.6 kmh N 2.0 mph3.2 kmh 30.30 in1026.1 mb 0.00 in0.0 mm 0.00 in0.0 mm 0.00 in0.0 mm
07:00 AM 32.8°F0.4°C 18.8°F-7.3°C 56% 2.0 mph NW3.2 kmh NW 4.0 mph6.4 kmh 30.33 in1027.1 mb 0.00 in0.0 mm 0.00 in0.0 mm 0.00 in0.0 mm
08:00 AM 37.9°F3.3°C 17.9°F-7.8°C 44% 3.0 mph NW4.8 kmh NW 4.0 mph6.4 kmh 30.35 in1027.8 mb 0.00 in0.0 mm 0.00 in0.0 mm 0.00 in0.0 mm
09:00 AM 41.0°F5.0°C 19.7°F-6.8°C 42% 10.0 mph N16.1 kmh N 10.1 mph16.3 kmh 30.37 in1028.4 mb 0.00 in0.0 mm 0.00 in0.0 mm 0.00 in0.0 mm
10:00 AM 43.5°F6.4°C 22.0°F-5.6°C 42% 6.0 mph NW9.7 kmh NW 8.1 mph13.0 kmh 30.37 in1028.4 mb 0.00 in0.0 mm 0.00 in0.0 mm 0.00 in0.0 mm
11:00 AM 45.3°F7.4°C 22.4°F-5.3°C 40% 10.0 mph N16.1 kmh N 14.1 mph22.7 kmh 30.36 in1028.1 mb 0.00 in0.0 mm 0.00 in0.0 mm 0.00 in0.0 mm
12:00 PM 47.1°F8.4°C 22.2°F-5.4°C 37% 4.0 mph WNW6.4 kmh WNW 10.1 mph16.3 kmh 30.35 in1027.8 mb 0.00 in0.0 mm 0.00 in0.0 mm 0.00 in0.0 mm
01:00 PM 49.6°F9.8°C 25.0°F-3.9°C 38% 1.0 mph WSW1.6 kmh WSW 3.0 mph4.8 kmh 30.33 in1027.1 mb 0.00 in0.0 mm 0.00 in0.0 mm 0.00 in0.0 mm
01:45 PM 50.8°F10.4°C 24.1°F-4.4°C 35% 4.0 mph N6.4 kmh N 6.1 mph9.8 kmh 30.32 in1026.8 mb 0.00 in0.0 mm 0.00 in0.0 mm 0.00 in0.0 mm
02:30 PM 50.9°F10.5°C 22.1°F-5.5°C 32% 4.0 mph NW6.4 kmh NW 5.1 mph8.2 kmh 30.31 in1026.4 mb 0.00 in0.0 mm 0.00 in0.0 mm 0.00 in0.0 mm
03:30 PM 51.2°F10.7°C 24.5°F-4.2°C 35% 4.0 mph N6.4 kmh N 9.1 mph14.6 kmh 30.30 in1026.1 mb 0.00 in0.0 mm 0.00 in0.0 mm 0.00 in0.0 mm
04:30 PM 50.9°F10.5°C 21.3°F-5.9°C 31% Calm Calm 3.0 mph4.8 kmh 30.30 in1026.1 mb 0.00 in0.0 mm 0.00 in0.0 mm 0.00 in0.0 mm
05:30 PM 49.7°F9.8°C 21.0°F-6.1°C 32% 2.0 mph E3.2 kmh E 4.0 mph6.4 kmh 30.31 in1026.4 mb 0.00 in0.0 mm 0.00 in0.0 mm 0.00 in0.0 mm
06:30 PM 45.6°F7.6°C 22.1°F-5.5°C 39% Calm Calm 1.0 mph1.6 kmh 30.32 in1026.8 mb 0.00 in0.0 mm 0.00 in0.0 mm 0.00 in0.0 mm
07:30 PM 41.1°F5.1°C 23.4°F-4.8°C 49% Calm Calm -- 30.33 in1027.1 mb 0.00 in0.0 mm 0.00 in0.0 mm 0.00 in0.0 mm
08:00 PM 40.1°F4.5°C 24.4°F-4.2°C 53% 1.0 mph ENE1.6 kmh ENE 2.0 mph3.2 kmh 30.35 in1027.8 mb 0.00 in0.0 mm 0.00 in0.0 mm 0.00 in0.0 mm
08:30 PM 39.2°F4.0°C 24.0°F-4.4°C 54% 1.0 mph E1.6 kmh E 2.0 mph3.2 kmh 30.35 in1027.8 mb 0.00 in0.0 mm 0.00 in0.0 mm 0.00 in0.0 mm
09:30 PM 40.1°F4.5°C 25.3°F-3.7°C 55% 2.0 mph E3.2 kmh E 6.1 mph9.8 kmh 30.36 in1028.1 mb 0.00 in0.0 mm 0.00 in0.0 mm 0.00 in0.0 mm
10:30 PM 39.2°F4.0°C 28.1°F-2.2°C 64% 3.0 mph ESE4.8 kmh ESE 4.0 mph6.4 kmh 30.36 in1028.1 mb 0.00 in0.0 mm 0.00 in0.0 mm 0.00 in0.0 mm
11:30 PM 38.6°F3.7°C 28.2°F-2.1°C 66% 4.0 mph SE6.4 kmh SE 7.1 mph11.4 kmh 30.36 in1028.1 mb 0.00 in0.0 mm 0.00 in0.0 mm 0.00 in0.0 mm